Time;durP1;ratioP1;P1;durP2;ratioP2;P2;SDS_P1;SDS_P2;PMS_P1;PMS_P2;Temp;Humidity;BMP_temperature;BMP_pressure;BME280_temperature;BME280_humidity;BME280_pressure;Samples;Min_cycle;Max_cycle;Signal;HPM_P1;HPM_P2
2022/01/07 00:02:03;;;;;;;12.57;8.35;;;;;;;11.01;70.71;101051.69;4956442;28;102199;-49
2022/01/07 00:04:35;;;;;;;14.05;8.85;;;;;;;11.01;70.59;101057.94;4954955;28;103680;-48
2022/01/07 00:07:03;;;;;;;13.25;8.07;;;;;;;11.01;70.59;101065.31;4958049;28;102686;-50
2022/01/07 00:09:29;;;;;;;13.13;8.43;;;;;;;11.01;70.77;101073.47;4957735;28;103946;-49
2022/01/07 00:11:57;;;;;;;13.90;8.75;;;;;;;11.01;70.70;101068.03;4956820;28;102788;-48
2022/01/07 00:14:23;;;;;;;14.10;7.82;;;;;;;11.02;70.95;101075.09;4950929;28;102371;-49
2022/01/07 00:16:50;;;;;;;14.93;8.73;;;;;;;11.00;70.98;101069.94;4947174;28;102024;-49
2022/01/07 00:19:17;;;;;;;12.40;8.32;;;;;;;11.01;70.58;101084.38;4939227;28;104058;-48
2022/01/07 00:21:46;;;;;;;14.18;8.32;;;;;;;11.01;70.61;101082.47;4960644;28;102359;-47
2022/01/07 00:24:12;;;;;;;12.30;7.70;;;;;;;11.02;70.84;101086.00;4937329;28;101999;-48
2022/01/07 00:26:38;;;;;;;12.55;8.00;;;;;;;11.01;70.79;101074.28;4940482;28;102195;-47
2022/01/07 00:29:05;;;;;;;11.57;8.10;;;;;;;11.01;70.24;101078.91;4938353;28;103682;-46
2022/01/07 00:31:32;;;;;;;12.70;7.72;;;;;;;11.02;70.30;101091.44;4938854;28;102231;-47
2022/01/07 00:33:58;;;;;;;12.63;7.78;;;;;;;11.02;70.71;101097.72;4959930;28;102535;-47
2022/01/07 00:36:24;;;;;;;12.65;7.97;;;;;;;11.02;70.69;101102.34;4942406;28;102659;-47
2022/01/07 00:38:52;;;;;;;10.88;7.68;;;;;;;11.01;70.33;101117.06;4943988;28;103918;-48
2022/01/07 00:41:19;;;;;;;13.10;7.80;;;;;;;11.02;70.55;101096.88;4939493;28;103514;-49
2022/01/07 00:43:45;;;;;;;12.13;7.45;;;;;;;11.02;70.97;101091.44;4944373;28;102106;-49
2022/01/07 00:46:12;;;;;;;10.32;7.43;;;;;;;11.01;70.51;101106.16;4933438;28;102400;-49
2022/01/07 00:48:38;;;;;;;12.65;7.95;;;;;;;11.01;70.90;101096.06;4937164;28;104132;-49
2022/01/07 00:51:05;;;;;;;12.70;7.72;;;;;;;11.02;70.97;101105.06;4945636;28;102185;-48
2022/01/07 00:53:32;;;;;;;13.07;8.20;;;;;;;11.02;70.79;101099.63;4936118;28;102220;-49
2022/01/07 00:56:00;;;;;;;11.63;7.00;;;;;;;11.01;70.61;101101.53;4939916;28;102396;-48
2022/01/07 00:58:26;;;;;;;13.25;7.90;;;;;;;11.01;70.60;101096.06;4940187;28;103979;-48
2022/01/07 01:00:53;;;;;;;11.07;7.05;;;;;;;11.02;70.31;101105.06;4944115;28;101999;-49
2022/01/07 01:03:20;;;;;;;10.80;6.97;;;;;;;11.01;70.39;101101.53;4938214;28;102546;-48
2022/01/07 01:05:46;;;;;;;12.93;7.53;;;;;;;11.02;70.75;101097.72;4941794;28;102335;-49
2022/01/07 01:08:12;;;;;;;10.73;6.93;;;;;;;11.02;70.69;101111.31;4946557;28;104014;-49
2022/01/07 01:10:39;;;;;;;12.00;7.43;;;;;;;11.02;70.69;101105.06;4965976;28;102361;-50
2022/01/07 01:13:07;;;;;;;10.43;6.70;;;;;;;11.03;70.45;101120.31;4946452;28;102131;-49
2022/01/07 01:15:33;;;;;;;10.45;6.22;;;;;;;11.02;70.80;101135.03;4946608;28;102270;-49
2022/01/07 01:18:00;;;;;;;10.40;7.00;;;;;;;11.02;70.74;101124.13;4936932;28;103884;-46
2022/01/07 01:20:27;;;;;;;9.82;6.63;;;;;;;11.03;70.66;101125.75;4938337;28;102451;-49
2022/01/07 01:22:53;;;;;;;10.82;6.85;;;;;;;11.03;70.68;101133.94;4936756;28;104570;-49
2022/01/07 01:25:20;;;;;;;9.85;7.07;;;;;;;11.02;70.97;101140.47;4937215;28;102225;-48
2022/01/07 01:27:47;;;;;;;11.57;6.88;;;;;;;11.02;70.60;101146.72;4935157;28;103802;-48
2022/01/07 01:30:19;;;;;;;11.65;7.18;;;;;;;11.03;71.09;101153.00;4952725;28;102393;-48
2022/01/07 01:32:46;;;;;;;9.57;6.75;;;;;;;11.01;70.52;101153.28;4937446;28;102489;-48
2022/01/07 01:35:14;;;;;;;10.85;7.22;;;;;;;11.02;70.83;101145.91;4936266;28;102110;-48
2022/01/07 01:37:40;;;;;;;10.40;6.88;;;;;;;11.02;71.22;101149.44;4935690;28;103928;-47
2022/01/07 01:40:08;;;;;;;9.70;6.22;;;;;;;11.03;70.53;101150.28;4938895;28;102195;-48
2022/01/07 01:42:39;;;;;;;10.90;6.78;;;;;;;11.03;71.07;101161.16;4935661;28;103748;-47
2022/01/07 01:45:07;;;;;;;9.57;6.78;;;;;;;11.02;70.35;101152.19;4939848;28;102630;-50
2022/01/07 01:47:36;;;;;;;8.88;6.22;;;;;;;11.02;70.83;101156.81;4936072;28;103886;-48
2022/01/07 01:50:04;;;;;;;10.40;6.15;;;;;;;11.04;70.58;101171.00;4948402;28;101992;-48
2022/01/07 01:52:30;;;;;;;10.63;6.87;;;;;;;11.03;71.00;101181.06;4944206;28;103250;-48
2022/01/07 01:54:57;;;;;;;9.45;6.10;;;;;;;11.02;70.55;101168.50;4932091;28;102396;-48
2022/01/07 01:57:23;;;;;;;9.73;6.43;;;;;;;11.02;70.86;101162.25;4936408;28;103942;-48
2022/01/07 01:59:50;;;;;;;8.45;5.82;;;;;;;11.02;70.92;101167.69;4933887;28;102253;-48
2022/01/07 02:02:16;;;;;;;10.20;6.68;;;;;;;11.03;70.63;101169.34;4935662;28;102246;-49
2022/01/07 02:04:44;;;;;;;9.95;6.55;;;;;;;11.02;70.56;101165.78;4936704;28;102182;-48
2022/01/07 02:07:12;;;;;;;10.57;6.43;;;;;;;11.04;70.84;101165.53;4936781;28;104021;-48
2022/01/07 02:09:38;;;;;;;10.18;6.25;;;;;;;11.03;70.80;101174.78;4937369;28;102148;-49
2022/01/07 02:12:05;;;;;;;9.70;6.68;;;;;;;11.03;70.99;101180.22;4945786;28;102294;-48
2022/01/07 02:14:34;;;;;;;;;;;;;;;11.02;70.68;101184.84;4951628;28;102621;-49
2022/01/07 02:17:06;;;;;;;9.73;6.82;;;;;;;11.02;70.50;101187.59;4941599;28;103911;-49
2022/01/07 02:19:33;;;;;;;9.32;6.25;;;;;;;11.03;70.65;101191.97;4936116;28;102511;-48
2022/01/07 02:22:00;;;;;;;10.00;6.53;;;;;;;11.04;70.59;101192.78;4937048;28;102178;-46
2022/01/07 02:24:26;;;;;;;11.40;6.45;;;;;;;11.02;70.62;101194.94;4942006;28;102262;-47
2022/01/07 02:26:53;;;;;;;9.27;6.57;;;;;;;11.03;71.01;101197.41;4952697;28;104033;-49
2022/01/07 02:29:20;;;;;;;7.93;6.47;;;;;;;11.02;70.97;101190.31;4957166;28;102061;-48
2022/01/07 02:31:47;;;;;;;8.32;6.38;;;;;;;11.03;70.69;101199.28;4949746;28;102134;-47
2022/01/07 02:34:13;;;;;;;9.32;6.45;;;;;;;11.03;70.88;101191.13;4939812;28;102124;-47
2022/01/07 02:36:41;;;;;;;9.75;6.97;;;;;;;11.02;70.90;101190.31;4934428;28;103908;-48
2022/01/07 02:39:08;;;;;;;9.93;6.82;;;;;;;11.03;70.92;101193.84;4939079;28;102226;-49
2022/01/07 02:41:34;;;;;;;9.90;6.50;;;;;;;11.02;70.84;101201.19;4934622;28;102280;-48
2022/01/07 02:44:01;;;;;;;10.68;6.80;;;;;;;11.03;70.47;101218.34;4941450;28;102391;-45
2022/01/07 02:46:28;;;;;;;8.82;6.28;;;;;;;11.02;70.66;101216.72;4946315;28;103839;-45
2022/01/07 02:48:54;;;;;;;11.27;6.70;;;;;;;11.02;70.77;101228.44;4935794;28;102083;-48
2022/01/07 02:51:21;;;;;;;10.75;7.50;;;;;;;11.03;70.66;101234.69;4943649;28;102174;-49
2022/01/07 02:53:49;;;;;;;9.00;6.90;;;;;;;11.02;70.54;101238.50;4939941;28;102581;-48
2022/01/07 02:56:16;;;;;;;11.65;7.25;;;;;;;11.02;70.62;101244.78;4934165;28;103935;-49
2022/01/07 02:58:42;;;;;;;9.65;6.95;;;;;;;11.02;70.72;101249.41;4953968;28;101922;-48
2022/01/07 03:01:08;;;;;;;13.15;8.20;;;;;;;11.02;70.85;101249.41;4931983;28;102477;-46
2022/01/07 03:03:35;;;;;;;11.45;8.13;;;;;;;11.03;70.71;101248.31;4934021;28;102222;-49
2022/01/07 03:06:02;;;;;;;11.35;7.90;;;;;;;11.01;70.47;101258.66;4933902;28;103926;-49
2022/01/07 03:08:28;;;;;;;11.15;7.80;;;;;;;11.02;70.83;101250.22;4954646;28;102640;-48
2022/01/07 03:10:56;;;;;;;10.55;7.35;;;;;;;11.01;70.61;101259.50;4935917;28;102095;-48
2022/01/07 03:13:22;;;;;;;9.88;7.30;;;;;;;11.01;70.53;101264.94;4939392;28;104497;-47
2022/01/07 03:15:49;;;;;;;10.32;7.32;;;;;;;11.02;70.77;101271.19;4947719;28;104255;-47
2022/01/07 03:18:15;;;;;;;11.07;8.05;;;;;;;11.01;70.65;101270.38;4941807;28;102241;-48
2022/01/07 03:20:42;;;;;;;10.70;7.65;;;;;;;11.02;70.70;101273.91;4939824;28;104394;-48
2022/01/07 03:23:11;;;;;;;11.13;7.55;;;;;;;11.02;71.06;101276.66;4969070;28;102572;-46
2022/01/07 03:25:38;;;;;;;11.77;8.13;;;;;;;11.02;70.61;101292.97;4947244;28;103878;-46
2022/01/07 03:28:10;;;;;;;11.80;7.90;;;;;;;11.01;70.78;101292.16;4939272;28;102144;-49
2022/01/07 03:30:37;;;;;;;9.57;7.00;;;;;;;11.01;70.79;101297.63;4948231;28;102352;-45
2022/01/07 03:33:03;;;;;;;11.27;8.10;;;;;;;11.02;70.77;101298.44;4929383;28;102631;-47
2022/01/07 03:35:30;;;;;;;10.20;7.00;;;;;;;11.03;70.45;101300.06;4940632;28;103877;-47
2022/01/07 03:37:57;;;;;;;11.25;7.28;;;;;;;11.01;70.75;101303.06;4952680;28;102221;-48
2022/01/07 03:40:24;;;;;;;10.07;7.00;;;;;;;11.01;70.54;101302.25;4937914;28;102183;-46
2022/01/07 03:42:50;;;;;;;12.70;7.57;;;;;;;11.02;70.65;101309.31;4936568;28;102214;-48
2022/01/07 03:45:19;;;;;;;11.57;8.40;;;;;;;11.01;70.49;101310.41;4938069;28;104057;-46
2022/01/07 03:47:46;;;;;;;10.77;7.93;;;;;;;11.01;70.80;101313.97;4945629;28;102234;-47
2022/01/07 03:50:15;;;;;;;10.20;7.57;;;;;;;11.01;70.78;101313.97;4956593;28;102064;-48
2022/01/07 03:52:42;;;;;;;10.55;7.82;;;;;;;11.01;70.42;101318.59;4956994;28;102638;-48
2022/01/07 03:55:11;;;;;;;11.43;8.35;;;;;;;11.01;70.44;101329.47;4957205;28;104100;-49
2022/01/07 03:57:39;;;;;;;11.30;8.65;;;;;;;11.01;70.40;101345.81;4956047;28;102379;-47
2022/01/07 04:00:08;;;;;;;10.43;7.57;;;;;;;11.01;70.63;101351.28;4958569;28;103719;-49
2022/01/07 04:02:36;;;;;;;12.05;7.90;;;;;;;11.00;70.99;101350.44;4961230;28;102214;-49
2022/01/07 04:05:04;;;;;;;;;;;;;;;11.00;70.80;101349.63;4944568;28;103950;-49
2022/01/07 04:07:33;;;;;;;11.70;8.32;;;;;;;11.01;70.68;101356.72;4961789;28;103389;-48
2022/01/07 04:10:00;;;;;;;;;;;;;;;11.01;70.73;101367.63;4958171;28;102172;-48
2022/01/07 04:12:26;;;;;;;10.80;7.90;;;;;;;11.00;70.86;101364.06;4948732;28;102232;-45
2022/01/07 04:15:07;;;;;;;11.27;7.65;;;;;;;11.00;70.55;101365.97;4938118;28;104057;-47
2022/01/07 04:17:35;;;;;;;10.27;8.15;;;;;;;11.00;70.46;101371.44;4951125;28;102179;-50
2022/01/07 04:20:03;;;;;;;11.33;8.80;;;;;;;11.00;70.42;101371.44;4939930;28;102173;-49
2022/01/07 04:22:29;;;;;;;9.45;7.72;;;;;;;10.99;70.75;101375.22;4936230;28;102319;-48
2022/01/07 04:24:57;;;;;;;10.65;7.65;;;;;;;11.00;70.50;101382.31;4945707;28;104204;-48
2022/01/07 04:27:23;;;;;;;10.10;7.50;;;;;;;11.00;70.88;101376.88;4956870;28;102116;-46
2022/01/07 04:29:50;;;;;;;10.25;7.93;;;;;;;11.00;70.83;101376.88;4950433;28;102063;-49
2022/01/07 04:32:18;;;;;;;9.45;7.60;;;;;;;10.99;70.67;101386.09;4939453;28;102448;-48
2022/01/07 04:34:46;;;;;;;10.45;7.53;;;;;;;10.99;70.86;101389.66;4950270;28;104092;-49
2022/01/07 04:37:12;;;;;;;9.55;7.82;;;;;;;10.99;70.58;101394.28;4942972;28;102157;-48
2022/01/07 04:39:39;;;;;;;9.13;7.32;;;;;;;10.99;70.44;101397.00;4936379;28;102872;-49
2022/01/07 04:42:06;;;;;;;11.20;8.25;;;;;;;10.99;70.67;101397.00;4943715;28;102847;-49
2022/01/07 04:44:35;;;;;;;9.70;7.75;;;;;;;11.00;70.76;101401.38;4937911;28;104169;-48
2022/01/07 04:47:02;;;;;;;11.63;8.40;;;;;;;10.99;70.53;101413.34;4937426;28;102216;-48
2022/01/07 04:49:28;;;;;;;9.70;7.40;;;;;;;10.99;70.98;101405.16;4950981;28;102244;-49
2022/01/07 04:51:56;;;;;;;12.05;8.60;;;;;;;10.99;70.78;101405.16;4938975;28;102704;-49
2022/01/07 04:54:22;;;;;;;10.02;7.57;;;;;;;11.00;70.49;101409.56;4927250;28;103740;-47
2022/01/07 04:56:49;;;;;;;9.55;7.40;;;;;;;10.99;70.93;101407.88;4939717;28;103001;-47
2022/01/07 04:59:15;;;;;;;9.18;7.53;;;;;;;10.98;70.80;101411.69;4950317;28;102645;-49
2022/01/07 05:01:42;;;;;;;10.27;8.20;;;;;;;11.00;70.60;101425.91;4937773;28;102757;-49
2022/01/07 05:04:08;;;;;;;11.00;7.85;;;;;;;10.99;70.90;101427.78;4939550;28;103880;-48
2022/01/07 05:06:47;;;;;;;9.45;7.43;;;;;;;10.98;70.94;101428.84;4936856;28;102317;-46
2022/01/07 05:09:17;;;;;;;9.18;7.57;;;;;;;10.98;70.55;101425.31;4955674;28;102063;-49
2022/01/07 05:11:43;;;;;;;;;;;;;;;10.99;70.52;101441.38;4943788;28;102796;-49
2022/01/07 05:14:10;;;;;;;8.98;7.07;;;;;;;10.98;70.25;101452.56;4935315;28;104020;-47
2022/01/07 05:16:40;;;;;;;9.07;7.10;;;;;;;10.97;70.37;101454.47;4953014;28;102270;-50
2022/01/07 05:19:07;;;;;;;9.38;7.63;;;;;;;10.98;70.45;101461.53;4940628;28;102336;-48
2022/01/07 05:21:34;;;;;;;9.73;7.40;;;;;;;10.98;70.47;101469.72;4952997;28;102471;-47
2022/01/07 05:24:01;;;;;;;8.68;7.10;;;;;;;10.99;70.67;101467.81;4955199;28;104220;-49
2022/01/07 05:26:30;;;;;;;10.45;8.02;;;;;;;10.97;70.41;101469.97;4955894;28;102266;-48
2022/01/07 05:28:56;;;;;;;9.05;7.60;;;;;;;10.98;70.76;101482.50;4947980;28;102344;-49
2022/01/07 05:31:23;;;;;;;10.40;7.50;;;;;;;10.98;70.62;101482.50;4932202;28;102319;-47
2022/01/07 05:33:50;;;;;;;8.75;7.18;;;;;;;10.97;70.70;101491.78;4943043;28;104189;-49
2022/01/07 05:36:16;;;;;;;8.65;7.32;;;;;;;10.98;70.28;101496.13;4936338;28;102427;-47
2022/01/07 05:38:43;;;;;;;9.55;7.55;;;;;;;10.98;70.79;101496.13;4934011;28;102314;-47
2022/01/07 05:41:09;;;;;;;8.95;7.40;;;;;;;10.98;70.76;101493.41;4944097;28;102194;-48
2022/01/07 05:43:37;;;;;;;9.50;7.55;;;;;;;10.96;70.86;101507.28;4963116;28;103785;-47
2022/01/07 05:46:04;;;;;;;8.23;7.03;;;;;;;10.97;70.33;101502.66;4950984;28;102064;-49
2022/01/07 05:48:32;;;;;;;9.60;7.20;;;;;;;10.98;70.81;101512.47;4936151;28;102333;-48
2022/01/07 05:50:58;;;;;;;10.00;7.22;;;;;;;10.97;70.53;101529.91;4939175;28;102412;-48
2022/01/07 05:53:25;;;;;;;8.68;7.00;;;;;;;10.97;70.88;101530.72;4943082;28;104026;-48
2022/01/07 05:55:51;;;;;;;9.55;7.35;;;;;;;10.97;70.82;101533.44;4941678;28;102222;-49
2022/01/07 05:58:18;;;;;;;7.82;6.82;;;;;;;10.97;70.26;101536.16;4935525;28;102293;-51
2022/01/07 06:00:45;;;;;;;8.35;6.70;;;;;;;10.97;70.77;101543.53;4937413;28;102243;-48
2022/01/07 06:03:12;;;;;;;8.63;7.10;;;;;;;10.96;70.33;101550.88;4938309;28;103994;-49
2022/01/07 06:05:38;;;;;;;9.95;7.57;;;;;;;10.97;70.83;101557.97;4946834;28;102111;-46
2022/01/07 06:08:05;;;;;;;9.18;7.70;;;;;;;10.97;70.49;101568.03;4953202;28;102445;-47
2022/01/07 06:10:32;;;;;;;9.18;7.30;;;;;;;10.97;70.63;101562.59;4938420;28;102135;-48
2022/01/07 06:12:58;;;;;;;8.82;6.75;;;;;;;10.97;70.83;101573.47;4951962;28;103998;-49
2022/01/07 06:15:25;;;;;;;8.30;6.85;;;;;;;10.96;70.47;101572.66;4944294;28;102116;-47
2022/01/07 06:17:52;;;;;;;8.90;7.32;;;;;;;10.98;70.62;101586.00;4940699;28;102485;-48
2022/01/07 06:20:21;;;;;;;7.28;6.28;;;;;;;10.97;70.86;101589.81;4936014;28;102598;-50
2022/01/07 06:22:47;;;;;;;8.10;7.10;;;;;;;10.97;70.71;101590.63;4948376;28;104021;-49
2022/01/07 06:25:14;;;;;;;7.85;6.43;;;;;;;10.96;70.28;101593.59;4942572;28;102658;-46
2022/01/07 06:27:40;;;;;;;8.32;7.00;;;;;;;10.96;70.70;101594.44;4933059;28;103416;-49
2022/01/07 06:30:08;;;;;;;7.80;6.32;;;;;;;10.97;70.59;101589.81;4938563;28;102201;-49
2022/01/07 06:32:35;;;;;;;8.02;6.72;;;;;;;10.97;70.73;101598.81;4941935;28;104129;-49
2022/01/07 06:35:03;;;;;;;9.63;7.55;;;;;;;10.96;70.32;101599.91;4933138;28;102127;-47
2022/01/07 06:37:30;;;;;;;7.65;6.40;;;;;;;10.97;70.54;101601.53;4932392;28;102453;-46
2022/01/07 06:39:57;;;;;;;7.93;7.00;;;;;;;10.97;70.42;101608.88;4936339;28;102548;-48
2022/01/07 06:42:23;;;;;;;9.90;7.63;;;;;;;10.97;70.56;101612.44;4930534;28;104109;-47
2022/01/07 06:44:49;;;;;;;7.43;5.95;;;;;;;10.97;70.69;101606.16;4942774;28;102268;-48
2022/01/07 06:47:16;;;;;;;9.13;7.10;;;;;;;10.96;70.56;101615.38;4949398;28;102786;-46
2022/01/07 06:49:42;;;;;;;8.73;6.78;;;;;;;10.96;70.77;101615.38;4956264;28;102818;-48
2022/01/07 06:52:10;;;;;;;8.43;6.90;;;;;;;10.97;70.91;101623.31;4944287;28;103779;-48
2022/01/07 06:54:37;;;;;;;7.85;6.65;;;;;;;10.97;70.55;101622.50;4934775;28;105018;-47
2022/01/07 06:57:04;;;;;;;7.53;6.75;;;;;;;10.97;70.26;101638.84;4935580;28;102206;-48
2022/01/07 06:59:30;;;;;;;7.55;6.68;;;;;;;10.97;70.51;101636.94;4943537;28;102685;-49
2022/01/07 07:01:57;;;;;;;9.40;7.40;;;;;;;10.96;70.70;101637.19;4938584;28;103920;-46
2022/01/07 07:04:23;;;;;;;7.10;6.05;;;;;;;10.96;70.80;101637.19;4940017;28;103095;-46
2022/01/07 07:06:50;;;;;;;7.85;6.53;;;;;;;10.96;70.19;101637.19;4945999;28;102272;-47
2022/01/07 07:09:19;;;;;;;8.10;6.68;;;;;;;10.95;70.70;101638.25;4949738;28;102308;-47
2022/01/07 07:11:46;;;;;;;8.10;6.78;;;;;;;10.96;70.54;101645.34;4955679;28;105276;-47
2022/01/07 07:14:12;;;;;;;7.70;6.90;;;;;;;10.96;70.36;101653.50;4940040;28;102207;-48
2022/01/07 07:16:39;;;;;;;8.25;6.88;;;;;;;10.95;70.76;101652.69;4935584;28;102168;-49
2022/01/07 07:19:06;;;;;;;7.07;6.30;;;;;;;10.95;70.62;101652.69;4939187;28;102604;-47
2022/01/07 07:21:32;;;;;;;7.47;6.60;;;;;;;10.96;70.92;101658.97;4952539;28;104087;-48
2022/01/07 07:24:00;;;;;;;9.07;7.18;;;;;;;10.95;70.70;101657.31;4955492;28;102126;-49
2022/01/07 07:26:27;;;;;;;7.10;6.38;;;;;;;10.94;70.67;101659.22;4956789;28;102446;-48
2022/01/07 07:28:54;;;;;;;7.10;6.25;;;;;;;10.95;70.29;101662.78;4940280;28;102170;-48
2022/01/07 07:31:21;;;;;;;7.60;6.28;;;;;;;10.94;70.32;101669.31;4941887;28;103908;-48
2022/01/07 07:36:30;;;;;;;7.60;6.55;;;;;;;10.94;70.27;101682.91;4955246;28;102579;-48
2022/01/07 07:38:58;;;;;;;7.47;6.50;;;;;;;10.93;70.20;101665.75;4935504;28;102245;-47
2022/01/07 07:41:25;;;;;;;7.93;6.40;;;;;;;10.94;70.71;101680.19;4937940;28;103904;-47
2022/01/07 07:43:54;;;;;;;6.95;6.22;;;;;;;10.94;70.69;101682.91;4955150;28;102441;-48
2022/01/07 07:46:20;;;;;;;;;;;;;;;10.93;70.39;101684.00;4957692;28;103628;-47
2022/01/07 07:48:47;;;;;;;7.45;5.93;;;;;;;10.93;70.20;101692.16;4956082;28;102357;-47
2022/01/07 07:51:14;;;;;;;7.00;6.28;;;;;;;10.92;70.07;101696.78;4953121;28;104260;-45
2022/01/07 07:53:41;;;;;;;7.32;6.50;;;;;;;10.92;70.64;101702.22;4938398;28;102220;-47
2022/01/07 07:56:10;;;;;;;7.50;6.03;;;;;;;10.92;70.40;101701.41;4938305;28;102132;-49
2022/01/07 07:58:39;;;;;;;7.40;6.43;;;;;;;10.92;70.28;101701.41;4935707;28;102116;-47
2022/01/07 08:01:07;;;;;;;8.52;6.43;;;;;;;10.91;70.27;101707.91;4935828;28;103880;-49
2022/01/07 08:03:34;;;;;;;9.27;6.23;;;;;;;10.92;70.32;101712.28;4944177;28;102122;-45
2022/01/07 08:06:00;;;;;;;8.52;6.10;;;;;;;10.92;70.40;101709.56;4938641;28;102520;-47
2022/01/07 08:08:26;;;;;;;7.47;6.60;;;;;;;10.92;70.10;101704.13;4953816;28;102491;-47
2022/01/07 08:10:56;;;;;;;8.70;6.63;;;;;;;10.92;70.65;101718.56;4954688;28;103983;-49
2022/01/07 08:16:01;;;;;;;8.32;5.63;;;;;;;10.92;70.41;101704.13;4950895;28;103200;-48
2022/01/07 08:18:33;;;;;;;7.88;5.80;;;;;;;10.90;70.57;101698.13;4928805;28;103751;-49
2022/01/07 08:21:01;;;;;;;6.22;5.63;;;;;;;10.90;70.08;101707.09;4941641;28;103877;-48
2022/01/07 08:23:28;;;;;;;5.75;5.10;;;;;;;10.90;70.07;101703.56;4947218;28;102135;-49
2022/01/07 08:25:54;;;;;;;10.15;6.03;;;;;;;10.90;70.57;101714.44;4945552;28;102287;-49
2022/01/07 08:28:25;;;;;;;8.63;5.40;;;;;;;10.90;70.21;101719.91;4957845;28;102201;-47
2022/01/07 08:36:24;;;;;;;7.03;5.15;;;;;;;10.91;70.50;101732.44;4940764;28;102106;-49
2022/01/07 08:38:52;;;;;;;6.43;4.90;;;;;;;10.90;70.40;101730.78;4954345;28;102138;-48
2022/01/07 08:41:20;;;;;;;5.93;4.75;;;;;;;10.91;70.51;101743.31;4941424;28;103126;-48
2022/01/07 08:43:47;;;;;;;5.65;4.47;;;;;;;10.90;70.20;101739.78;4935247;28;102574;-48
2022/01/07 08:46:13;;;;;;;6.38;4.75;;;;;;;10.91;70.01;101743.31;4933968;28;102125;-48
2022/01/07 08:48:43;;;;;;;6.40;4.50;;;;;;;10.91;70.21;101740.59;4937726;28;102610;-47
2022/01/07 08:51:10;;;;;;;6.53;4.70;;;;;;;10.91;70.24;101749.59;4937812;28;104050;-49
2022/01/07 08:53:37;;;;;;;5.95;4.88;;;;;;;10.91;70.32;101751.50;4931628;28;102130;-48
2022/01/07 08:56:04;;;;;;;5.18;4.40;;;;;;;10.91;70.13;101749.59;4936219;28;102220;-49
2022/01/07 08:58:32;;;;;;;6.55;5.03;;;;;;;10.93;70.10;101752.09;4943654;28;102080;-49
2022/01/07 09:00:59;;;;;;;5.45;4.28;;;;;;;10.91;69.80;101760.50;4954477;28;104274;-49
2022/01/07 09:03:26;;;;;;;76.70;14.05;;;;;;;10.92;69.75;101755.88;4931978;28;103445;-47
2022/01/07 09:05:54;;;;;;;10.50;5.40;;;;;;;10.93;70.01;101762.97;4936137;28;103225;-49
2022/01/07 09:08:21;;;;;;;9.95;4.50;;;;;;;10.92;70.39;101759.41;4930942;28;103451;-46
2022/01/07 09:10:48;;;;;;;7.97;4.25;;;;;;;10.92;70.37;101764.03;4926017;28;103877;-48
2022/01/07 09:13:16;;;;;;;5.23;4.20;;;;;;;10.94;70.12;101770.06;4929977;28;102246;-48
2022/01/07 09:15:43;;;;;;;5.13;4.05;;;;;;;10.92;70.31;101751.25;4936459;28;103056;-48
2022/01/07 09:18:14;;;;;;;4.20;3.65;;;;;;;10.92;70.01;101759.41;4948998;28;102370;-48
2022/01/07 09:20:42;;;;;;;4.57;3.90;;;;;;;10.92;70.23;101756.69;4943573;28;104009;-47
2022/01/07 09:23:10;;;;;;;5.30;4.00;;;;;;;10.93;70.42;101757.53;4940571;28;102198;-47
2022/01/07 09:25:37;;;;;;;5.10;3.70;;;;;;;10.93;70.02;101752.09;4936759;28;102842;-48
2022/01/07 09:28:05;;;;;;;3.97;3.45;;;;;;;10.93;70.11;101758.34;4935038;28;102213;-48
2022/01/07 09:30:32;;;;;;;4.00;3.40;;;;;;;10.94;70.19;101753.72;4933558;28;104293;-47
2022/01/07 09:32:58;;;;;;;3.75;3.40;;;;;;;10.93;70.37;101757.53;4931575;28;102863;-47
2022/01/07 09:35:25;;;;;;;5.03;3.65;;;;;;;10.93;70.21;101754.81;4940164;28;102320;-48
2022/01/07 09:37:51;;;;;;;3.75;3.33;;;;;;;10.94;70.23;101753.72;4937087;28;103119;-48
2022/01/07 09:40:21;;;;;;;6.28;3.55;;;;;;;10.95;70.30;101758.09;4933275;28;103888;-48
2022/01/07 09:42:55;;;;;;;4.30;3.67;;;;;;;10.95;69.85;101750.75;4929392;28;103896;-47
2022/01/07 09:45:23;;;;;;;4.18;3.53;;;;;;;10.95;69.91;101755.38;4928963;28;102947;-46
2022/01/07 09:47:51;;;;;;;3.50;3.20;;;;;;;10.96;69.80;101757.88;4931594;28;102781;-46
2022/01/07 09:50:19;;;;;;;4.03;3.22;;;;;;;10.95;69.97;101761.63;4931817;28;103592;-47
2022/01/07 09:52:46;;;;;;;4.45;3.22;;;;;;;10.97;70.36;101769.59;4933168;28;102419;-49
2022/01/07 09:55:12;;;;;;;4.22;3.28;;;;;;;10.96;69.86;101760.59;4935758;28;102101;-48
2022/01/07 09:57:40;;;;;;;4.20;3.20;;;;;;;10.98;70.17;101760.31;4937911;28;102160;-48
2022/01/07 10:00:10;;;;;;;3.70;3.05;;;;;;;10.98;70.24;101754.88;4937631;28;103672;-46
2022/01/07 10:02:36;;;;;;;;;;;;;;;10.98;69.83;101766.59;4941677;28;102662;-46
2022/01/07 10:05:15;;;;;;;4.85;3.13;;;;;;;10.99;70.14;101767.41;4943341;28;102558;-46
2022/01/07 10:07:42;;;;;;;4.25;3.08;;;;;;;10.99;70.23;101772.88;4957735;28;104321;-47
2022/01/07 10:10:10;;;;;;;3.75;3.03;;;;;;;10.99;70.06;101756.53;4958764;28;103754;-47
2022/01/07 10:12:52;;;;;;;3.40;2.20;;;;;;;11.01;70.26;101757.13;4954898;28;102461;-46
2022/01/07 10:15:20;;;;;;;4.03;2.97;;;;;;;10.99;70.07;101751.06;4955549;28;102119;-48
2022/01/07 10:17:55;;;;;;;3.80;3.28;;;;;;;11.00;70.20;101758.19;4951395;28;102525;-47
2022/01/07 10:20:24;;;;;;;3.08;2.80;;;;;;;11.00;70.34;101758.19;4930302;28;105370;-48
2022/01/07 10:22:53;;;;;;;3.28;2.70;;;;;;;11.00;70.09;101758.19;4928992;28;102595;-48
2022/01/07 10:25:23;;;;;;;3.63;3.08;;;;;;;11.01;70.36;101757.13;4927513;28;103939;-47
2022/01/07 10:27:51;;;;;;;3.47;2.80;;;;;;;11.00;70.06;101758.19;4932266;28;102352;-48
2022/01/07 10:30:25;;;;;;;2.90;2.58;;;;;;;11.00;70.31;101759.00;4933597;28;103910;-46
2022/01/07 10:32:53;;;;;;;4.00;2.40;;;;;;;11.00;70.01;101763.63;4935563;28;102662;-49
2022/01/07 10:35:21;;;;;;;3.28;2.88;;;;;;;11.01;69.96;101759.84;4940313;28;102213;-47
2022/01/07 10:37:53;;;;;;;3.60;2.70;;;;;;;11.00;69.67;101756.28;4934561;28;102190;-47
2022/01/07 10:40:28;;;;;;;3.03;2.58;;;;;;;11.01;70.04;101759.84;4955271;28;107942;-48
2022/01/07 10:43:08;;;;;;;3.45;2.72;;;;;;;11.01;69.86;101759.84;4928603;28;102142;-48
2022/01/07 10:45:35;;;;;;;3.58;2.47;;;;;;;11.01;69.77;101759.84;4939507;28;103478;-49
2022/01/07 10:48:01;;;;;;;2.97;2.65;;;;;;;11.01;70.29;101759.84;4937094;28;102971;-49
2022/01/07 10:50:28;;;;;;;2.85;2.40;;;;;;;11.01;70.29;101760.66;4937426;28;104001;-48
2022/01/07 10:53:15;;;;;;;3.03;2.45;;;;;;;11.01;69.89;101757.13;4933114;28;102388;-47
2022/01/07 10:55:58;;;;;;;4.30;2.80;;;;;;;11.01;69.85;101765.28;4935218;28;103132;-47
2022/01/07 10:58:25;;;;;;;3.10;2.58;;;;;;;11.00;69.82;101761.75;4939724;28;102550;-49
2022/01/07 11:00:52;;;;;;;3.00;2.53;;;;;;;11.01;69.88;101759.84;4950400;28;104007;-49
2022/01/07 11:03:19;;;;;;;3.20;2.70;;;;;;;11.01;70.11;101762.56;4952345;28;103582;-48
2022/01/07 11:05:46;;;;;;;5.45;3.03;;;;;;;11.01;69.77;101762.56;4952320;28;102763;-48
2022/01/07 11:08:15;;;;;;;3.35;2.22;;;;;;;11.00;70.19;101760.91;4942450;28;102660;-46
2022/01/07 11:10:42;;;;;;;3.10;2.53;;;;;;;11.00;70.06;101763.63;4935453;28;103785;-48
2022/01/07 11:13:10;;;;;;;3.05;2.13;;;;;;;11.00;70.08;101766.38;4941964;28;102576;-49
2022/01/07 11:15:38;;;;;;;2.90;2.38;;;;;;;10.99;69.70;101768.25;4944075;28;102108;-49
2022/01/07 11:18:04;;;;;;;3.95;2.22;;;;;;;10.99;69.80;101767.41;4937525;28;102177;-48
2022/01/07 11:20:31;;;;;;;3.20;2.10;;;;;;;11.00;70.11;101771.81;4935942;28;103991;-47
2022/01/07 11:22:57;;;;;;;3.22;2.47;;;;;;;10.98;70.18;101771.22;4946210;28;103447;-45
2022/01/07 11:25:31;;;;;;;2.60;2.40;;;;;;;10.99;69.98;101767.41;4933568;28;102934;-48
2022/01/07 11:27:59;;;;;;;3.75;2.20;;;;;;;10.99;69.92;101761.97;4932167;28;103204;-48
2022/01/07 11:30:29;;;;;;;2.83;2.30;;;;;;;10.99;69.74;101772.88;4931458;28;103905;-48